首页
METAR-TAF:

METAR-TAF

机场 :

牛津, 英格兰

纬度: 51-50-13N, 经度: 1-19-12W, 海拔: 82米

当前天气观测

该预报发布于10小时和34分钟前的19:20 UTC
风速2节,风向西
温度 25°C
湿度 61%
气压 1017 hPa
能见度10公里或以上
1500米以下无云,无积雨云

METAR: EGTK 071920Z 26002KT CAVOK 25/17 Q1017

时间: 06:54 (05:54 UTC)

预报

该预报发布于12小时和56分钟前的16:58 UTC
预报有效从07日的 18点(UTC)到 07日的 20点(UTC)
风速5节,风向北转西北
能见度10公里或以上
1500米以下无云,无积雨云

TAF: EGTK 071658Z 0718/0720 33005KT CAVOK

超过4000个机场的气象观测和天气预报(METAR&TAF报告)。

可查询的气象台以黄色和红色小点在地图上表示。

将鼠标移到小点上方,可查看气象台名称。

然后点击查看天气观测和预报。

如需切换地图:点击带黑十字的绿色按钮放大地图;点击带横线的绿色按钮缩小地图;或者点击绿色箭头查看邻近地区的地图。


METAR-TAF: